sensor_id;sensor_type;location;lat;lon;timestamp;temperature;humidity
20438;DHT22;65664;50.380;8.812;2024-01-10T04:47:07;-3.00;3.50
20438;DHT22;65664;50.380;8.812;2024-01-10T16:47:33;-0.10;12.80
20438;DHT22;65664;50.380;8.812;2024-01-10T16:50:01;0.00;12.70
20438;DHT22;65664;50.380;8.812;2024-01-10T16:52:28;0.20;12.30
20438;DHT22;65664;50.380;8.812;2024-01-10T16:54:55;0.30;11.60
20438;DHT22;65664;50.380;8.812;2024-01-10T16:57:28;0.30;11.30
20438;DHT22;65664;50.380;8.812;2024-01-10T17:00:19;0.10;11.40
20438;DHT22;65664;50.380;8.812;2024-01-10T17:02:52;-0.10;11.90
20438;DHT22;65664;50.380;8.812;2024-01-10T17:05:23;0.00;12.20
20438;DHT22;65664;50.380;8.812;2024-01-10T17:07:51;-0.20;12.30
20438;DHT22;65664;50.380;8.812;2024-01-10T17:10:22;-0.10;12.00
20438;DHT22;65664;50.380;8.812;2024-01-10T17:12:51;-0.10;12.00
20438;DHT22;65664;50.380;8.812;2024-01-10T17:15:19;-0.10;11.90
20438;DHT22;65664;50.380;8.812;2024-01-10T17:17:50;0.10;12.10
20438;DHT22;65664;50.380;8.812;2024-01-10T17:20:17;0.20;11.30
20438;DHT22;65664;50.380;8.812;2024-01-10T17:22:47;0.20;11.40
20438;DHT22;65664;50.380;8.812;2024-01-10T17:25:16;0.40;10.90
20438;DHT22;65664;50.380;8.812;2024-01-10T17:27:55;0.40;9.90
20438;DHT22;65664;50.380;8.812;2024-01-10T17:30:22;0.30;10.30
20438;DHT22;65664;50.380;8.812;2024-01-10T17:32:52;0.50;9.70
20438;DHT22;65664;50.380;8.812;2024-01-10T17:35:20;0.60;9.50
20438;DHT22;65664;50.380;8.812;2024-01-10T17:37:47;0.60;9.10
20438;DHT22;65664;50.380;8.812;2024-01-10T17:40:14;0.60;8.60
20438;DHT22;65664;50.380;8.812;2024-01-10T17:42:41;0.60;8.50
20438;DHT22;65664;50.380;8.812;2024-01-10T17:45:09;0.60;8.50
20438;DHT22;65664;50.380;8.812;2024-01-10T17:47:38;0.50;8.70
20438;DHT22;65664;50.380;8.812;2024-01-10T17:50:09;0.50;8.80
20438;DHT22;65664;50.380;8.812;2024-01-10T17:52:38;0.50;8.90
20438;DHT22;65664;50.380;8.812;2024-01-10T17:55:05;0.50;9.10
20438;DHT22;65664;50.380;8.812;2024-01-10T17:57:32;0.10;10.00
20438;DHT22;65664;50.380;8.812;2024-01-10T17:59:59;-0.10;11.00
20438;DHT22;65664;50.380;8.812;2024-01-10T18:02:26;-0.30;11.20
20438;DHT22;65664;50.380;8.812;2024-01-10T18:04:53;-0.30;12.20
20438;DHT22;65664;50.380;8.812;2024-01-10T18:07:23;0.00;11.70
20438;DHT22;65664;50.380;8.812;2024-01-10T18:09:51;0.20;11.00
20438;DHT22;65664;50.380;8.812;2024-01-10T18:12:18;0.20;10.40
20438;DHT22;65664;50.380;8.812;2024-01-10T18:14:45;-0.30;11.00
20438;DHT22;65664;50.380;8.812;2024-01-10T18:17:12;-0.40;11.70
20438;DHT22;65664;50.380;8.812;2024-01-10T18:19:39;-0.20;12.00
20438;DHT22;65664;50.380;8.812;2024-01-10T18:22:06;-0.40;11.60
20438;DHT22;65664;50.380;8.812;2024-01-10T18:24:35;-0.40;12.50
20438;DHT22;65664;50.380;8.812;2024-01-10T18:27:03;-0.50;13.20
20438;DHT22;65664;50.380;8.812;2024-01-10T18:29:30;-0.40;12.50
20438;DHT22;65664;50.380;8.812;2024-01-10T18:31:57;-0.50;12.40
20438;DHT22;65664;50.380;8.812;2024-01-10T18:34:24;-0.50;12.70
20438;DHT22;65664;50.380;8.812;2024-01-10T18:36:51;-0.40;12.40
20438;DHT22;65664;50.380;8.812;2024-01-10T18:39:17;-0.30;12.50
20438;DHT22;65664;50.380;8.812;2024-01-10T18:41:47;-0.40;12.10
20438;DHT22;65664;50.380;8.812;2024-01-10T18:44:14;-0.60;12.50
20438;DHT22;65664;50.380;8.812;2024-01-10T18:46:42;-0.50;12.70
20438;DHT22;65664;50.380;8.812;2024-01-10T18:49:10;-0.30;12.40
20438;DHT22;65664;50.380;8.812;2024-01-10T19:12:22;-0.50;12.70
20438;DHT22;65664;50.380;8.812;2024-01-10T20:16:19;-1.00;16.70
20438;DHT22;65664;50.380;8.812;2024-01-10T20:18:46;-0.80;16.40
20438;DHT22;65664;50.380;8.812;2024-01-10T20:30:32;-0.80;15.60
